OMRKOMSJ

Guest
Details From OMRK - RAS AL KHAIMAH INTL
To OMSJ - SHARJAH INTL
Flight Number -
Tags decoded
Created
Modified
Stats Distance 29 nm / 53 km
Max Altitude 0 ft / 0 m
Waypoints 2
Social Downloads 0
Likes 0
Share VATSIM

Download

Looking for another format? Having issues loading an existing format? Contact us
Advertisement - Login to hide

Notes

Requested: OMRK OMSJ

Route

OMRK OMSJ

ID Type Via Altitude (ft/m) Position (lat/lon) Dist (leg/tot) Name
O OMRK APT - 0 / 0 25.61335 / 55.93883 - / 0 nm RAS AL KHAIMAH INTL
O OMSJ APT - 0 / 0 25.32859 / 55.51722 28 / 28 nm SHARJAH INTL

Altitude Profile

Advertisement - Login to hide

OMRK

Details ICAO OMRK (RKT)
Name Ras Al Khaimah International
Region United Arab Emirates
Timezone Asia/Dubai (UTC+4.0)
Stats Elevation 94 ft / 29 m (AMSL)
Location 25.613400° 55.938800°
Runways 1
Magnetic Variation 2.101° E

METAR

OMRK 092300Z 15007KT CAVOK 20/15 Q1015 A2998

Decode

TAF

TAF OMRK 091650Z 0918/1100 VRB02KT 9999 FEW040 BECMG 1005/1007 27012KT BECMG 1014/1016 18005KT

Decode

Departure Runways

ID Width Length Bearing (true/mag) Surface Threshold Overrun Markings Lighting
16 148 ft / 45 m 12,348 ft / 3,764 m 164.85° / 162.75° ASPHALT 0 ft / 0 m 0 ft / 0 m PREC-APP EDGE THRESHOLD SALS
34 148 ft / 45 m 12,348 ft / 3,764 m 344.85° / 342.75° ASPHALT 0 ft / 0 m 0 ft / 0 m PREC-APP EDGE THRESHOLD ALSF-I

OMSJ

Details ICAO OMSJ (SHJ)
Name Sharjah International Airport
Region United Arab Emirates
Timezone Asia/Dubai (UTC+4.0)
Stats Elevation 118 ft / 36 m (AMSL)
Location 25.330500° 55.518600°
Runways 1
Magnetic Variation 2.092° E

METAR

OMSJ 092300Z 09003KT CAVOK 25/17 Q1015

Decode

TAF

TAF OMSJ 091650Z 0918/1100 28012KT CAVOK PROB40 0918/1004 21007KT BECMG 1016/1018 18005KT

Decode

Destination Runways

ID Width Length Bearing (true/mag) Surface Threshold Overrun Markings Lighting
12 148 ft / 45 m 13,342 ft / 4,067 m 122.53° / 120.44° ASPHALT 997 ft / 304 m 374 ft / 114 m APP CENTERLINE EDGE THRESHOLD MALSF
30 148 ft / 45 m 13,342 ft / 4,067 m 302.55° / 300.46° ASPHALT 994 ft / 303 m 390 ft / 119 m APP CENTERLINE EDGE THRESHOLD MALSF

Approach Navaids

Runway Type Ident Frequency Range Bearing (true/mag) Slope Elevation
30 GS ISJ 109.70 MHz 10 nm / 19 km 302.92° / 300.83 ° 3.00° 111 ft / 34 m (AMSL)
30 OM OM - - 302.46° / 300.37 ° - 111 ft / 34 m (AMSL)
30 LOC-ILS ISJ 109.70 MHz 18 nm / 33 km 302.45° / 300.36 ° - 111 ft / 34 m (AMSL)
30 MM MM - - 302.46° / 300.37 ° - 111 ft / 34 m (AMSL)

Popular Alternatives